createdAt,value
2022-09-09T00:00:12.756Z,26.40
2022-09-09T00:00:41.085Z,26.30
2022-09-09T00:01:12.568Z,26.36
2022-09-09T00:01:43.517Z,26.36
2022-09-09T00:02:12.467Z,26.33
2022-09-09T00:02:34.298Z,26.12
2022-09-09T00:03:04.640Z,26.16
2022-09-09T00:03:29.082Z,26.19
2022-09-09T00:03:56.281Z,26.20
2022-09-09T00:04:28.282Z,26.21
2022-09-09T00:05:01.163Z,26.23
2022-09-09T00:05:32.499Z,26.26
2022-09-09T00:06:03.237Z,26.29
2022-09-09T00:06:29.363Z,26.26
2022-09-09T00:07:01.408Z,26.26
2022-09-09T00:07:29.229Z,26.22
2022-09-09T00:07:53.307Z,26.20
2022-09-09T00:08:20.657Z,26.26
2022-09-09T00:08:53.540Z,26.20
2022-09-09T00:09:19.121Z,26.25
2022-09-09T00:09:49.244Z,26.24
2022-09-09T00:10:22.627Z,26.25
2022-09-09T00:10:44.225Z,26.25
2022-09-09T00:11:06.206Z,26.20
2022-09-09T00:11:34.642Z,26.18
2022-09-09T00:12:04.828Z,26.16
2022-09-09T00:12:33.860Z,26.10
2022-09-09T00:13:01.970Z,26.16
2022-09-09T00:13:30.139Z,26.11
2022-09-09T00:13:55.833Z,26.20
2022-09-09T00:14:25.103Z,26.19
2022-09-09T00:14:52.233Z,26.17
2022-09-09T00:15:20.520Z,26.23
2022-09-09T00:15:47.921Z,26.23
2022-09-09T00:16:17.212Z,26.25
2022-09-09T00:16:45.498Z,26.23
2022-09-09T00:17:13.365Z,26.26
2022-09-09T00:17:40.776Z,26.22
2022-09-09T00:18:10.272Z,26.18
2022-09-09T00:18:42.078Z,26.30
2022-09-09T00:19:08.966Z,26.25
2022-09-09T00:19:37.594Z,26.32
2022-09-09T00:20:04.121Z,26.32
2022-09-09T00:20:34.246Z,26.31
2022-09-09T00:21:04.657Z,26.32
2022-09-09T00:21:59.178Z,26.31
2022-09-09T00:22:36.790Z,26.32
2022-09-09T00:23:16.555Z,26.32
2022-09-09T00:23:53.627Z,26.26
2022-09-09T00:25:02.545Z,26.23
2022-09-09T00:25:46.713Z,26.22
2022-09-09T00:26:41.334Z,26.20
2022-09-09T00:27:20.201Z,26.19
2022-09-09T00:27:50.015Z,26.17
2022-09-09T00:29:16.737Z,26.19
2022-09-09T00:31:10.581Z,26.10
2022-09-09T00:31:33.279Z,26.07
2022-09-09T00:31:58.533Z,26.08
2022-09-09T00:32:21.672Z,26.04
2022-09-09T00:32:46.165Z,26.06
2022-09-09T00:33:13.978Z,26.05
2022-09-09T00:33:35.799Z,26.07
2022-09-09T00:34:03.941Z,26.07
2022-09-09T00:34:29.282Z,26.09
2022-09-09T00:34:55.598Z,26.12
2022-09-09T00:35:22.597Z,26.12
2022-09-09T00:35:47.792Z,26.13
2022-09-09T00:36:16.613Z,26.13
2022-09-09T00:36:38.996Z,26.09
2022-09-09T00:37:00.865Z,26.14
2022-09-09T00:37:24.649Z,26.13
2022-09-09T00:37:49.839Z,26.13
2022-09-09T00:38:16.532Z,26.12
2022-09-09T00:38:43.349Z,26.15
2022-09-09T00:39:06.598Z,26.18
2022-09-09T00:39:33.662Z,26.13
2022-09-09T00:40:01.718Z,26.13
2022-09-09T00:40:29.526Z,26.18
2022-09-09T00:40:53.748Z,26.17
2022-09-09T00:41:21.129Z,26.15
2022-09-09T00:42:24.423Z,26.08
2022-09-09T00:42:57.592Z,26.15
2022-09-09T00:44:38.355Z,26.18
2022-09-09T00:45:25.064Z,26.05
2022-09-09T00:46:37.584Z,26.13
2022-09-09T00:48:20.058Z,26.03
2022-09-09T00:49:00.467Z,25.92
2022-09-09T00:50:50.497Z,25.86
2022-09-09T00:51:31.925Z,25.89
2022-09-09T00:52:38.866Z,25.93
2022-09-09T00:53:34.835Z,25.83
2022-09-09T00:55:22.106Z,25.74
2022-09-09T00:57:13.086Z,25.87
2022-09-09T00:58:20.197Z,25.82
2022-09-09T00:59:01.842Z,25.87
2022-09-09T01:00:56.649Z,25.80
2022-09-09T01:01:26.506Z,25.87
2022-09-09T01:01:54.126Z,25.89
2022-09-09T01:02:31.865Z,25.91
2022-09-09T01:03:28.225Z,25.96
2022-09-09T01:04:09.040Z,25.96
2022-09-09T01:04:55.783Z,25.92
2022-09-09T01:05:37.653Z,25.96
2022-09-09T01:06:27.314Z,25.97
2022-09-09T01:07:10.645Z,25.97
2022-09-09T01:07:39.277Z,25.85
2022-09-09T01:08:24.811Z,25.88
2022-09-09T01:09:13.469Z,25.89
2022-09-09T01:09:43.410Z,25.86
2022-09-09T01:10:18.310Z,25.80
2022-09-09T01:10:47.291Z,25.50
2022-09-09T01:11:17.070Z,25.55
2022-09-09T01:11:52.417Z,25.55
2022-09-09T01:12:17.859Z,25.51
2022-09-09T01:12:44.656Z,25.49
2022-09-09T01:13:17.931Z,25.50
2022-09-09T01:13:42.717Z,25.49
2022-09-09T01:14:18.247Z,25.48
2022-09-09T01:14:45.801Z,25.41
2022-09-09T01:15:11.418Z,25.38
2022-09-09T01:15:40.054Z,25.46
2022-09-09T01:16:04.205Z,25.51
2022-09-09T01:16:31.167Z,25.53
2022-09-09T01:16:57.365Z,25.57
2022-09-09T01:17:24.452Z,25.58
2022-09-09T01:18:07.594Z,25.63
2022-09-09T01:18:37.296Z,25.63
2022-09-09T01:19:10.911Z,25.66
2022-09-09T01:19:49.388Z,25.66
2022-09-09T01:21:40.716Z,25.70
2022-09-09T01:22:23.644Z,25.74
2022-09-09T01:23:30.595Z,25.75
2022-09-09T01:24:38.846Z,25.71
2022-09-09T01:25:28.770Z,25.70
2022-09-09T01:26:33.940Z,25.64
2022-09-09T01:28:05.115Z,25.69
2022-09-09T01:28:33.317Z,25.70
2022-09-09T01:29:04.250Z,25.65
2022-09-09T01:29:47.686Z,25.66
2022-09-09T01:30:24.506Z,25.63
2022-09-09T01:30:51.968Z,25.66
2022-09-09T01:31:36.873Z,25.59
2022-09-09T01:32:21.062Z,25.62
2022-09-09T01:32:46.480Z,25.70
2022-09-09T01:33:21.938Z,25.64
2022-09-09T01:33:51.576Z,25.67
2022-09-09T01:34:18.056Z,25.69
2022-09-09T01:34:55.387Z,25.69
2022-09-09T01:35:38.796Z,25.70
2022-09-09T01:36:08.790Z,25.75
2022-09-09T01:36:49.192Z,25.69
2022-09-09T01:37:21.142Z,25.70
2022-09-09T01:37:45.653Z,25.73
2022-09-09T01:38:11.706Z,25.74
2022-09-09T01:38:42.462Z,25.76
2022-09-09T01:39:18.327Z,25.69
2022-09-09T01:39:52.566Z,25.79
2022-09-09T01:40:23.232Z,25.83
2022-09-09T01:40:49.360Z,25.72
2022-09-09T01:41:13.870Z,25.77
2022-09-09T01:42:01.872Z,25.78
2022-09-09T01:42:26.093Z,25.78
2022-09-09T01:42:50.990Z,25.77
2022-09-09T01:43:34.663Z,25.76
2022-09-09T01:44:00.075Z,25.77
2022-09-09T01:44:32.975Z,25.69
2022-09-09T01:45:12.964Z,25.70
2022-09-09T01:45:55.969Z,25.69
2022-09-09T01:46:34.822Z,25.71
2022-09-09T01:47:19.615Z,25.67
2022-09-09T01:48:12.766Z,25.72
2022-09-09T01:49:05.754Z,25.75
2022-09-09T01:49:49.739Z,25.75
2022-09-09T01:50:18.309Z,25.74
2022-09-09T01:50:41.049Z,25.75
2022-09-09T01:51:03.175Z,25.77
2022-09-09T01:51:25.479Z,25.77
2022-09-09T01:51:51.088Z,25.74
2022-09-09T01:52:14.308Z,25.81
2022-09-09T01:52:37.216Z,25.82
2022-09-09T01:53:03.693Z,25.79
2022-09-09T01:53:27.300Z,25.82
2022-09-09T01:53:49.296Z,25.79
2022-09-09T01:54:12.908Z,25.83
2022-09-09T01:54:35.349Z,25.82
2022-09-09T01:55:02.429Z,25.83
2022-09-09T01:55:32.671Z,25.83
2022-09-09T01:56:06.813Z,25.84
2022-09-09T01:56:41.802Z,25.84
2022-09-09T01:57:13.241Z,25.87
2022-09-09T01:57:45.305Z,25.87
2022-09-09T01:58:17.753Z,25.89
2022-09-09T01:58:58.687Z,25.89
2022-09-09T01:59:30.043Z,25.89
2022-09-09T02:00:04.843Z,25.86
2022-09-09T02:00:43.034Z,25.86
2022-09-09T02:01:14.259Z,25.88
2022-09-09T02:01:50.949Z,25.88
2022-09-09T02:02:18.723Z,25.86
2022-09-09T02:02:59.791Z,25.80
2022-09-09T02:03:32.696Z,25.71
2022-09-09T02:04:10.880Z,25.54
2022-09-09T02:04:38.199Z,25.57
2022-09-09T02:05:17.477Z,25.60
2022-09-09T02:05:41.155Z,25.58
2022-09-09T02:06:26.662Z,25.65
2022-09-09T02:06:58.018Z,25.65
2022-09-09T02:07:38.200Z,25.66
2022-09-09T02:08:08.118Z,25.69
2022-09-09T02:08:44.928Z,25.62
2022-09-09T02:09:08.461Z,25.61
2022-09-09T02:09:31.452Z,25.58
2022-09-09T02:10:02.369Z,25.53
2022-09-09T02:10:30.377Z,25.51
2022-09-09T02:11:08.655Z,25.56
2022-09-09T02:11:41.232Z,25.60
2022-09-09T02:12:27.506Z,25.54
2022-09-09T02:13:12.353Z,25.57
2022-09-09T02:13:58.293Z,25.55
2022-09-09T02:14:41.247Z,25.59
2022-09-09T02:15:21.102Z,25.60
2022-09-09T02:15:54.998Z,25.64
2022-09-09T02:16:27.557Z,25.64
2022-09-09T02:17:12.364Z,25.69
2022-09-09T02:18:11.967Z,25.70
2022-09-09T02:18:38.685Z,25.68
2022-09-09T02:19:05.056Z,25.71
2022-09-09T02:19:41.228Z,25.67
2022-09-09T02:20:15.953Z,25.74
2022-09-09T02:20:46.855Z,25.72
2022-09-09T02:21:08.918Z,25.74
2022-09-09T02:21:32.506Z,25.76
2022-09-09T02:21:56.745Z,25.78
2022-09-09T02:22:24.393Z,25.78
2022-09-09T02:22:50.484Z,25.62
2022-09-09T02:23:15.468Z,25.65
2022-09-09T02:23:42.888Z,25.70
2022-09-09T02:24:11.197Z,25.72
2022-09-09T02:24:41.006Z,25.68
2022-09-09T02:25:20.614Z,25.78
2022-09-09T02:25:47.247Z,25.79
2022-09-09T02:26:21.141Z,25.80
2022-09-09T02:26:49.412Z,25.71
2022-09-09T02:27:15.675Z,25.68
2022-09-09T02:27:37.612Z,25.59
2022-09-09T02:28:00.224Z,25.72
2022-09-09T02:28:25.062Z,25.74
2022-09-09T02:28:48.508Z,25.75
2022-09-09T02:29:16.504Z,25.77
2022-09-09T02:29:42.242Z,25.78
2022-09-09T02:30:05.583Z,25.77
2022-09-09T02:30:35.227Z,25.81
2022-09-09T02:30:59.307Z,25.83
2022-09-09T02:31:28.524Z,25.80
2022-09-09T02:31:59.268Z,25.83
2022-09-09T02:32:26.815Z,25.85
2022-09-09T02:32:50.815Z,25.88
2022-09-09T02:33:15.149Z,25.87
2022-09-09T02:33:45.249Z,25.90
2022-09-09T02:34:11.790Z,25.91
2022-09-09T02:34:37.642Z,25.91
2022-09-09T02:35:04.986Z,25.91
2022-09-09T02:35:29.360Z,25.91
2022-09-09T02:35:54.395Z,25.92
2022-09-09T02:36:20.615Z,25.87
2022-09-09T02:36:46.503Z,25.91
2022-09-09T02:37:11.771Z,25.93
2022-09-09T02:37:38.112Z,25.92
2022-09-09T02:38:04.540Z,25.92
2022-09-09T02:38:30.583Z,25.90
2022-09-09T02:38:58.302Z,25.91
2022-09-09T02:39:24.007Z,25.88
2022-09-09T02:39:48.469Z,25.91
2022-09-09T02:40:16.607Z,25.90
2022-09-09T02:40:42.115Z,25.89
2022-09-09T02:41:05.733Z,25.89
2022-09-09T02:41:32.837Z,25.85
2022-09-09T02:41:54.552Z,25.83
2022-09-09T02:42:24.815Z,25.83
2022-09-09T02:42:50.955Z,25.75
2022-09-09T02:43:17.268Z,25.71
2022-09-09T02:43:39.241Z,25.70
2022-09-09T02:44:09.628Z,25.72
2022-09-09T02:44:32.244Z,25.74
2022-09-09T02:44:55.964Z,25.72
2022-09-09T02:45:22.072Z,25.72
2022-09-09T02:45:54.107Z,25.73
2022-09-09T02:46:30.842Z,25.69
2022-09-09T02:47:11.604Z,25.71
2022-09-09T02:47:37.533Z,25.66
2022-09-09T02:48:13.162Z,25.73
2022-09-09T02:48:48.375Z,25.76
2022-09-09T02:49:16.236Z,25.75
2022-09-09T02:49:50.872Z,25.70
2022-09-09T02:50:18.784Z,25.73
2022-09-09T02:50:48.953Z,25.75
2022-09-09T02:51:20.865Z,25.73
2022-09-09T02:51:53.006Z,25.75
2022-09-09T02:52:17.721Z,25.76
2022-09-09T02:52:49.316Z,25.75
2022-09-09T02:53:18.174Z,25.75
2022-09-09T02:53:47.874Z,25.73
2022-09-09T02:54:17.784Z,25.76
2022-09-09T02:54:39.999Z,25.75
2022-09-09T02:55:13.067Z,25.79
2022-09-09T02:55:39.977Z,25.79
2022-09-09T02:56:07.608Z,25.80
2022-09-09T02:56:39.917Z,25.84
2022-09-09T02:57:07.325Z,25.75
2022-09-09T02:57:36.035Z,25.83
2022-09-09T02:58:01.084Z,25.82
2022-09-09T02:58:24.500Z,25.82
2022-09-09T02:58:52.831Z,25.84
2022-09-09T02:59:15.424Z,25.88
2022-09-09T02:59:37.239Z,25.83
2022-09-09T03:00:02.292Z,25.86
2022-09-09T03:00:28.071Z,25.84
2022-09-09T03:00:54.504Z,25.88
2022-09-09T03:01:16.689Z,25.88
2022-09-09T03:01:40.910Z,25.85
2022-09-09T03:02:02.713Z,25.86
2022-09-09T03:02:26.248Z,25.87
2022-09-09T03:02:54.353Z,25.88
2022-09-09T03:03:17.532Z,25.88
2022-09-09T03:03:40.776Z,25.85
2022-09-09T03:04:07.504Z,25.82
2022-09-09T03:04:29.283Z,25.80
2022-09-09T03:04:52.681Z,25.83
2022-09-09T03:05:15.016Z,25.75
2022-09-09T03:05:38.023Z,25.72
2022-09-09T03:06:00.004Z,25.71
2022-09-09T03:06:22.884Z,25.69
2022-09-09T03:06:51.782Z,25.76
2022-09-09T03:07:16.746Z,25.80
2022-09-09T03:07:38.320Z,25.80
2022-09-09T03:08:00.159Z,25.73
2022-09-09T03:08:21.948Z,25.83
2022-09-09T03:08:49.281Z,25.77
2022-09-09T03:09:14.152Z,25.82
2022-09-09T03:09:35.778Z,25.83
2022-09-09T03:09:57.334Z,25.85
2022-09-09T03:10:21.578Z,25.82
2022-09-09T03:10:44.251Z,25.83
2022-09-09T03:11:08.549Z,25.83
2022-09-09T03:11:32.245Z,25.84
2022-09-09T03:11:55.891Z,25.86
2022-09-09T03:12:17.715Z,25.87
2022-09-09T03:12:40.615Z,25.87
2022-09-09T03:13:02.581Z,25.88
2022-09-09T03:13:28.595Z,25.88
2022-09-09T03:13:50.373Z,25.88
2022-09-09T03:14:13.234Z,25.88
2022-09-09T03:14:35.954Z,25.89
2022-09-09T03:14:57.550Z,25.89
2022-09-09T03:15:21.431Z,25.90
2022-09-09T03:15:44.362Z,25.91
2022-09-09T03:16:10.533Z,25.92
2022-09-09T03:16:37.862Z,25.74
2022-09-09T03:17:01.817Z,25.74
2022-09-09T03:17:28.914Z,25.73
2022-09-09T03:17:51.951Z,25.72
2022-09-09T03:18:14.856Z,25.77
2022-09-09T03:18:36.517Z,25.80
2022-09-09T03:18:59.221Z,25.80
2022-09-09T03:19:21.345Z,25.77
2022-09-09T03:19:44.968Z,25.82
2022-09-09T03:20:09.069Z,25.84
2022-09-09T03:20:33.438Z,25.85
2022-09-09T03:20:55.238Z,25.84
2022-09-09T03:21:17.483Z,25.85
2022-09-09T03:21:40.000Z,25.85
2022-09-09T03:22:02.700Z,25.84
2022-09-09T03:22:26.251Z,25.83
2022-09-09T03:22:47.881Z,25.73
2022-09-09T03:23:14.960Z,25.83
2022-09-09T03:23:38.412Z,25.82
2022-09-09T03:24:00.995Z,25.85
2022-09-09T03:24:23.649Z,25.84
2022-09-09T03:24:45.302Z,25.83
2022-09-09T03:25:07.696Z,25.77
2022-09-09T03:25:32.932Z,25.82
2022-09-09T03:25:57.940Z,25.83
2022-09-09T03:26:26.405Z,25.83
2022-09-09T03:26:48.980Z,25.82
2022-09-09T03:27:12.453Z,25.77
2022-09-09T03:27:35.089Z,25.82
2022-09-09T03:27:58.573Z,25.85
2022-09-09T03:28:21.930Z,25.85
2022-09-09T03:28:45.748Z,25.87
2022-09-09T03:29:09.696Z,25.85
2022-09-09T03:29:31.345Z,25.86
2022-09-09T03:29:56.851Z,25.80
2022-09-09T03:30:21.652Z,25.84
2022-09-09T03:30:43.375Z,25.81
2022-09-09T03:31:06.737Z,25.79
2022-09-09T03:31:35.152Z,25.78
2022-09-09T03:31:57.234Z,25.78
2022-09-09T03:32:19.843Z,25.79
2022-09-09T03:32:42.411Z,25.78
2022-09-09T03:33:07.241Z,25.77
2022-09-09T03:33:30.416Z,25.79
2022-09-09T03:33:52.111Z,25.82
2022-09-09T03:34:15.210Z,25.83
2022-09-09T03:34:41.108Z,25.81
2022-09-09T03:35:05.964Z,25.81
2022-09-09T03:35:27.779Z,25.83
2022-09-09T03:35:49.933Z,25.82
2022-09-09T03:36:14.995Z,25.84
2022-09-09T03:36:37.856Z,25.82
2022-09-09T03:37:00.219Z,25.80
2022-09-09T03:37:24.449Z,25.83
2022-09-09T03:37:46.977Z,25.81
2022-09-09T03:38:10.356Z,25.79
2022-09-09T03:38:33.048Z,25.82
2022-09-09T03:38:56.128Z,25.80
2022-09-09T03:39:19.798Z,25.81
2022-09-09T03:39:41.813Z,25.82
2022-09-09T03:40:05.363Z,25.72
2022-09-09T03:40:27.127Z,25.78
2022-09-09T03:40:52.117Z,25.79
2022-09-09T03:41:13.783Z,25.74
2022-09-09T03:41:35.516Z,25.75
2022-09-09T03:41:57.900Z,25.74
2022-09-09T03:42:20.564Z,25.75
2022-09-09T03:42:45.893Z,25.74
2022-09-09T03:43:07.476Z,25.76
2022-09-09T03:43:30.123Z,25.76
2022-09-09T03:43:52.919Z,25.77
2022-09-09T03:44:15.078Z,25.76
2022-09-09T03:44:37.879Z,25.75
2022-09-09T03:45:00.272Z,25.78
2022-09-09T03:45:24.530Z,25.78
2022-09-09T03:45:48.163Z,25.77
2022-09-09T03:46:10.930Z,25.79
2022-09-09T03:46:33.013Z,25.78
2022-09-09T03:46:56.054Z,25.78
2022-09-09T03:47:19.194Z,25.77
2022-09-09T03:47:41.011Z,25.67
2022-09-09T03:48:03.286Z,25.69
2022-09-09T03:48:26.747Z,25.68
2022-09-09T03:48:49.546Z,25.65
2022-09-09T03:49:11.648Z,25.71
2022-09-09T03:49:33.221Z,25.69
2022-09-09T03:49:55.275Z,25.70
2022-09-09T03:50:19.349Z,25.71
2022-09-09T03:50:45.696Z,25.69
2022-09-09T03:51:07.552Z,25.71
2022-09-09T03:51:30.287Z,25.71
2022-09-09T03:51:52.986Z,25.69
2022-09-09T03:52:14.642Z,25.69
2022-09-09T03:52:36.894Z,25.70
2022-09-09T03:53:00.290Z,25.72
2022-09-09T03:53:24.124Z,25.69
2022-09-09T03:53:45.999Z,25.69
2022-09-09T03:54:09.248Z,25.68
2022-09-09T03:54:32.079Z,25.69
2022-09-09T03:54:56.933Z,25.70
2022-09-09T03:55:25.789Z,25.68
2022-09-09T03:55:56.180Z,25.68
2022-09-09T03:56:29.245Z,25.68
2022-09-09T03:56:54.878Z,25.63
2022-09-09T03:57:19.509Z,25.66
2022-09-09T03:57:43.311Z,25.62
2022-09-09T03:58:12.112Z,25.68
2022-09-09T03:58:37.641Z,25.60
2022-09-09T03:59:02.822Z,25.58
2022-09-09T03:59:30.773Z,25.69
2022-09-09T04:00:01.723Z,25.69
2022-09-09T04:00:59.161Z,25.64
2022-09-09T04:01:34.417Z,25.56
2022-09-09T04:02:01.689Z,25.56
2022-09-09T04:02:30.703Z,25.47
2022-09-09T04:02:58.324Z,25.55
2022-09-09T04:03:28.827Z,25.53
2022-09-09T04:03:59.338Z,25.59
2022-09-09T04:04:30.971Z,25.63
2022-09-09T04:04:58.109Z,25.65
2022-09-09T04:05:19.963Z,25.64
2022-09-09T04:05:43.262Z,25.64
2022-09-09T04:06:08.720Z,25.66
2022-09-09T04:06:31.903Z,25.67
2022-09-09T04:06:53.952Z,25.63
2022-09-09T04:07:15.562Z,25.65
2022-09-09T04:07:37.147Z,25.67
2022-09-09T04:07:59.721Z,25.65
2022-09-09T04:08:22.629Z,25.68
2022-09-09T04:08:45.428Z,25.69
2022-09-09T04:09:08.771Z,25.67
2022-09-09T04:09:31.383Z,25.63
2022-09-09T04:09:53.829Z,25.63
2022-09-09T04:10:16.723Z,25.61
2022-09-09T04:10:38.572Z,25.63
2022-09-09T04:11:06.299Z,25.58
2022-09-09T04:11:29.175Z,25.28
2022-09-09T04:11:54.036Z,25.50
2022-09-09T04:12:15.693Z,25.49
2022-09-09T04:12:38.300Z,25.50
2022-09-09T04:13:00.863Z,25.47
2022-09-09T04:13:22.646Z,25.49
2022-09-09T04:13:45.483Z,25.48
2022-09-09T04:14:09.848Z,25.47
2022-09-09T04:14:31.584Z,25.54
2022-09-09T04:14:53.502Z,25.55
2022-09-09T04:15:15.118Z,25.55
2022-09-09T04:15:40.140Z,25.56
2022-09-09T04:16:06.270Z,25.56
2022-09-09T04:16:44.248Z,25.58
2022-09-09T04:17:19.597Z,25.56
2022-09-09T04:17:48.336Z,25.60
2022-09-09T04:18:20.112Z,25.58
2022-09-09T04:18:57.418Z,25.58
2022-09-09T04:20:45.969Z,25.64
2022-09-09T04:21:23.614Z,25.63
2022-09-09T04:22:28.020Z,25.63
2022-09-09T04:22:55.982Z,25.64
2022-09-09T04:23:24.942Z,25.65
2022-09-09T04:23:47.184Z,25.66
2022-09-09T04:24:13.549Z,25.63
2022-09-09T04:24:46.812Z,25.67
2022-09-09T04:25:32.696Z,25.62
2022-09-09T04:25:57.597Z,25.59
2022-09-09T04:26:21.027Z,25.54
2022-09-09T04:26:42.654Z,25.48
2022-09-09T04:27:04.273Z,25.51
2022-09-09T04:27:27.173Z,25.51
2022-09-09T04:27:55.720Z,25.52
2022-09-09T04:28:18.393Z,25.48
2022-09-09T04:28:40.051Z,25.53
2022-09-09T04:29:08.594Z,25.52
2022-09-09T04:29:30.288Z,25.50
2022-09-09T04:29:51.847Z,25.54
2022-09-09T04:30:13.482Z,25.50
2022-09-09T04:30:36.765Z,25.47
2022-09-09T04:31:06.837Z,25.48
2022-09-09T04:31:29.060Z,25.51
2022-09-09T04:31:51.939Z,25.45
2022-09-09T04:32:13.660Z,25.28
2022-09-09T04:32:37.802Z,25.32
2022-09-09T04:32:59.366Z,25.37
2022-09-09T04:33:21.920Z,25.34
2022-09-09T04:33:45.868Z,25.36
2022-09-09T04:34:08.599Z,25.33
2022-09-09T04:34:31.420Z,25.31
2022-09-09T04:34:53.086Z,25.36
2022-09-09T04:35:15.354Z,25.35
2022-09-09T04:35:38.881Z,25.39
2022-09-09T04:36:01.591Z,25.43
2022-09-09T04:36:23.255Z,25.42
2022-09-09T04:36:47.464Z,25.44
2022-09-09T04:37:10.666Z,25.46
2022-09-09T04:37:32.792Z,25.47
2022-09-09T04:37:54.973Z,25.47
2022-09-09T04:38:18.046Z,25.49
2022-09-09T04:38:40.836Z,25.48
2022-09-09T04:39:02.523Z,25.51
2022-09-09T04:39:24.316Z,25.48
2022-09-09T04:39:46.597Z,25.48
2022-09-09T04:40:11.374Z,25.51
2022-09-09T04:40:33.842Z,25.53
2022-09-09T04:40:55.852Z,25.50
2022-09-09T04:41:17.571Z,25.52
2022-09-09T04:41:41.498Z,25.53
2022-09-09T04:42:05.389Z,25.54
2022-09-09T04:42:28.672Z,25.52
2022-09-09T04:42:51.287Z,25.57
2022-09-09T04:43:15.264Z,25.53
2022-09-09T04:43:38.504Z,25.49
2022-09-09T04:44:02.649Z,25.51
2022-09-09T04:44:25.355Z,25.51
2022-09-09T04:44:46.970Z,25.54
2022-09-09T04:45:11.675Z,25.56
2022-09-09T04:45:34.538Z,25.54
2022-09-09T04:45:56.723Z,25.56
2022-09-09T04:46:23.564Z,25.46
2022-09-09T04:46:46.012Z,25.48
2022-09-09T04:47:07.818Z,25.45
2022-09-09T04:47:29.398Z,25.50
2022-09-09T04:47:51.131Z,25.51
2022-09-09T04:48:13.843Z,25.50
2022-09-09T04:48:35.702Z,25.51
2022-09-09T04:48:59.087Z,25.49
2022-09-09T04:49:27.174Z,25.51
2022-09-09T04:49:50.641Z,25.52
2022-09-09T04:50:13.117Z,25.53
2022-09-09T04:50:34.914Z,25.53
2022-09-09T04:50:57.645Z,25.53
2022-09-09T04:51:20.475Z,25.48
2022-09-09T04:51:43.827Z,25.55
2022-09-09T04:52:05.770Z,25.56
2022-09-09T04:52:29.278Z,25.55
2022-09-09T04:52:52.274Z,25.55
2022-09-09T04:53:14.355Z,25.56
2022-09-09T04:53:36.724Z,25.54
2022-09-09T04:53:59.471Z,25.55
2022-09-09T04:54:21.261Z,25.56
2022-09-09T04:54:42.855Z,25.58
2022-09-09T04:55:05.828Z,25.49
2022-09-09T04:55:27.493Z,25.60
2022-09-09T04:55:50.537Z,25.60
2022-09-09T04:56:14.600Z,25.62
2022-09-09T04:56:42.619Z,25.64
2022-09-09T04:57:06.001Z,25.63
2022-09-09T04:57:29.625Z,25.66
2022-09-09T04:57:51.205Z,25.68
2022-09-09T04:58:12.815Z,25.69
2022-09-09T04:58:37.183Z,25.65
2022-09-09T04:59:00.483Z,25.68
2022-09-09T04:59:31.921Z,25.68
2022-09-09T04:59:57.050Z,25.68
2022-09-09T05:00:19.795Z,25.69
2022-09-09T05:00:42.542Z,25.69
2022-09-09T05:01:06.559Z,25.70
2022-09-09T05:01:30.590Z,25.69
2022-09-09T05:01:57.629Z,25.70
2022-09-09T05:02:19.336Z,25.71
2022-09-09T05:02:41.223Z,25.69
2022-09-09T05:03:05.861Z,25.76
2022-09-09T05:03:27.571Z,25.73
2022-09-09T05:03:49.599Z,25.71
2022-09-09T05:04:17.360Z,25.68
2022-09-09T05:04:39.954Z,25.69
2022-09-09T05:05:02.377Z,25.61
2022-09-09T05:05:24.088Z,25.64
2022-09-09T05:05:45.764Z,25.64
2022-09-09T05:06:10.522Z,25.62
2022-09-09T05:06:32.386Z,25.63
2022-09-09T05:06:56.477Z,25.65
2022-09-09T05:07:19.980Z,25.66
2022-09-09T05:07:56.935Z,25.66
2022-09-09T05:08:29.262Z,25.74
2022-09-09T05:09:01.229Z,25.68
2022-09-09T05:09:24.764Z,25.57
2022-09-09T05:09:49.255Z,25.53
2022-09-09T05:10:12.046Z,25.62
2022-09-09T05:10:35.114Z,25.63
2022-09-09T05:11:01.252Z,25.63
2022-09-09T05:11:34.225Z,25.65
2022-09-09T05:12:05.220Z,25.66
2022-09-09T05:12:32.357Z,25.66
2022-09-09T05:12:58.960Z,25.61
2022-09-09T05:14:03.852Z,25.67
2022-09-09T05:14:32.157Z,25.69
2022-09-09T05:15:07.606Z,25.72
2022-09-09T05:16:00.247Z,25.70
2022-09-09T05:16:29.832Z,25.73
2022-09-09T05:17:02.620Z,25.70
2022-09-09T05:17:27.732Z,25.73
2022-09-09T05:18:03.790Z,25.73
2022-09-09T05:18:27.425Z,25.73
2022-09-09T05:18:50.573Z,25.74
2022-09-09T05:19:13.928Z,25.75
2022-09-09T05:19:42.025Z,25.77
2022-09-09T05:20:09.037Z,25.76
2022-09-09T05:20:32.056Z,25.59
2022-09-09T05:21:00.860Z,25.69
2022-09-09T05:21:25.062Z,25.70
2022-09-09T05:21:46.659Z,25.72
2022-09-09T05:22:10.630Z,25.72
2022-09-09T05:22:38.834Z,25.70
2022-09-09T05:23:00.408Z,25.71
2022-09-09T05:23:24.853Z,25.73
2022-09-09T05:23:47.931Z,25.69
2022-09-09T05:24:09.628Z,25.73
2022-09-09T05:24:34.069Z,25.75
2022-09-09T05:24:56.046Z,25.75
2022-09-09T05:25:18.636Z,25.71
2022-09-09T05:25:41.633Z,25.77
2022-09-09T05:26:04.488Z,25.77
2022-09-09T05:26:26.220Z,25.75
2022-09-09T05:26:49.494Z,25.68
2022-09-09T05:27:13.096Z,25.58
2022-09-09T05:27:35.396Z,25.63
2022-09-09T05:27:57.353Z,25.63
2022-09-09T05:28:20.033Z,25.67
2022-09-09T05:28:41.820Z,25.69
2022-09-09T05:29:03.597Z,25.72
2022-09-09T05:29:26.581Z,25.73
2022-09-09T05:29:49.261Z,25.70
2022-09-09T05:30:11.508Z,25.68
2022-09-09T05:30:33.095Z,25.72
2022-09-09T05:30:58.416Z,25.72
2022-09-09T05:31:21.588Z,25.72
2022-09-09T05:31:46.330Z,25.72
2022-09-09T05:32:15.386Z,25.73
2022-09-09T05:32:38.685Z,25.73
2022-09-09T05:33:01.563Z,25.70
2022-09-09T05:33:23.362Z,25.72
2022-09-09T05:33:47.027Z,25.69
2022-09-09T05:34:09.279Z,25.67
2022-09-09T05:34:31.917Z,25.66
2022-09-09T05:34:53.577Z,25.64
2022-09-09T05:35:15.632Z,25.64
2022-09-09T05:35:38.962Z,25.65
2022-09-09T05:36:03.721Z,25.65
2022-09-09T05:36:25.628Z,25.60
2022-09-09T05:36:50.746Z,25.60
2022-09-09T05:37:13.271Z,25.52
2022-09-09T05:37:35.900Z,25.35
2022-09-09T05:38:00.696Z,25.34
2022-09-09T05:38:28.618Z,25.37
2022-09-09T05:38:52.021Z,25.38
2022-09-09T05:39:14.533Z,25.38
2022-09-09T05:39:37.823Z,25.35
2022-09-09T05:39:59.592Z,25.21
2022-09-09T05:40:23.447Z,25.15
2022-09-09T05:40:48.928Z,25.16
2022-09-09T05:41:12.534Z,25.16
2022-09-09T05:41:35.662Z,25.04
2022-09-09T05:41:59.324Z,24.99
2022-09-09T05:42:20.936Z,25.07
2022-09-09T05:42:42.716Z,25.11
2022-09-09T05:43:04.495Z,25.11
2022-09-09T05:43:28.180Z,24.86
2022-09-09T05:43:51.237Z,24.89
2022-09-09T05:44:14.357Z,24.93
2022-09-09T05:44:35.955Z,24.81
2022-09-09T05:44:59.069Z,24.93
2022-09-09T05:45:20.910Z,24.96
2022-09-09T05:45:42.566Z,24.90
2022-09-09T05:46:06.449Z,24.85
2022-09-09T05:46:29.415Z,24.91
2022-09-09T05:46:51.613Z,24.95
2022-09-09T05:47:15.706Z,24.99
2022-09-09T05:47:39.257Z,25.01
2022-09-09T05:48:04.109Z,24.95
2022-09-09T05:48:26.134Z,24.94
2022-09-09T05:48:51.575Z,24.96
2022-09-09T05:49:16.185Z,24.96
2022-09-09T05:49:37.949Z,24.94
2022-09-09T05:49:59.717Z,24.94
2022-09-09T05:50:22.379Z,25.00
2022-09-09T05:50:54.125Z,25.05
2022-09-09T05:51:18.318Z,25.08
2022-09-09T05:51:41.713Z,25.07
2022-09-09T05:52:07.049Z,25.09
2022-09-09T05:52:29.671Z,25.11
2022-09-09T05:52:56.356Z,25.14
2022-09-09T05:53:18.003Z,25.11
2022-09-09T05:53:40.018Z,25.09
2022-09-09T05:54:01.624Z,25.12
2022-09-09T05:54:27.468Z,25.11
2022-09-09T05:54:50.344Z,25.14
2022-09-09T05:55:12.059Z,25.15
2022-09-09T05:55:33.692Z,24.78
2022-09-09T05:56:04.281Z,24.85
2022-09-09T05:56:29.905Z,24.88
2022-09-09T05:56:54.491Z,24.94
2022-09-09T05:57:16.234Z,24.89
2022-09-09T05:57:40.116Z,24.98
2022-09-09T05:58:02.121Z,25.01
2022-09-09T05:58:25.240Z,25.02
2022-09-09T05:58:47.919Z,25.06
2022-09-09T05:59:10.861Z,25.08
2022-09-09T05:59:34.360Z,25.11
2022-09-09T05:59:57.734Z,25.14
2022-09-09T06:00:41.419Z,25.17
2022-09-09T06:01:13.559Z,25.15
2022-09-09T06:01:42.394Z,25.18
2022-09-09T06:02:43.538Z,25.22
2022-09-09T06:04:06.532Z,25.23
2022-09-09T06:04:29.556Z,25.17
2022-09-09T06:05:04.756Z,25.13
2022-09-09T06:05:39.929Z,25.15
2022-09-09T06:06:17.360Z,25.19
2022-09-09T06:06:52.026Z,25.22
2022-09-09T06:07:23.023Z,25.24
2022-09-09T06:07:50.890Z,25.28
2022-09-09T06:08:20.290Z,25.29
2022-09-09T06:09:00.898Z,25.28
2022-09-09T06:09:53.925Z,25.34
2022-09-09T06:10:25.788Z,25.33
2022-09-09T06:10:59.065Z,25.35
2022-09-09T06:11:40.206Z,25.07